Time;durP1;ratioP1;P1;durP2;ratioP2;P2;SDS_P1;SDS_P2;PMS_P1;PMS_P2;Temp;Humidity;BMP_temperature;BMP_pressure;BME280_temperature;BME280_humidity;BME280_pressure;Samples;Min_cycle;Max_cycle;Signal;HPM_P1;HPM_P2
2023/12/21 00:02:26;;;;;;;0.50;0.20;;;6.20;1.00;;;;;;5134507;28;20411;-57
2023/12/21 00:04:55;;;;;;;0.40;0.20;;;6.20;1.00;;;;;;5134163;28;20418;-57
2023/12/21 00:07:22;;;;;;;0.90;0.20;;;6.30;1.00;;;;;;5134754;28;20440;-57
2023/12/21 00:09:49;;;;;;;0.40;0.20;;;6.20;1.00;;;;;;5134624;28;20418;-58
2023/12/21 00:12:16;;;;;;;0.43;0.10;;;6.30;1.00;;;;;;5133637;28;20723;-56
2023/12/21 00:14:43;;;;;;;0.40;0.10;;;6.30;1.00;;;;;;5134015;28;20411;-58
2023/12/21 00:17:10;;;;;;;0.40;0.20;;;6.40;1.00;;;;;;5134737;28;20711;-58
2023/12/21 00:19:37;;;;;;;0.50;0.20;;;6.40;1.00;;;;;;5134929;28;20426;-57
2023/12/21 00:22:05;;;;;;;0.40;0.10;;;6.40;1.00;;;;;;5133919;28;20828;-58
2023/12/21 00:24:33;;;;;;;0.30;0.10;;;6.30;1.00;;;;;;5134349;28;20423;-56
2023/12/21 00:27:00;;;;;;;0.40;0.20;;;6.40;1.00;;;;;;5134477;28;20426;-59
2023/12/21 00:29:27;;;;;;;0.70;0.20;;;6.40;1.00;;;;;;5134648;28;20414;-57
2023/12/21 00:31:54;;;;;;;0.30;0.10;;;6.30;1.00;;;;;;5134765;28;20419;-58
2023/12/21 00:34:21;;;;;;;0.80;0.20;;;6.30;1.00;;;;;;5134198;28;20421;-58
2023/12/21 00:36:48;;;;;;;0.40;0.15;;;6.30;1.00;;;;;;5134679;28;20683;-58
2023/12/21 00:39:16;;;;;;;0.35;0.10;;;6.20;1.00;;;;;;5134453;28;20402;-58
2023/12/21 00:41:43;;;;;;;0.30;0.10;;;6.20;1.00;;;;;;5133585;28;21039;-58
2023/12/21 00:44:10;;;;;;;0.40;0.20;;;6.20;1.00;;;;;;5132811;28;20422;-58
2023/12/21 00:46:37;;;;;;;0.70;0.20;;;6.30;1.00;;;;;;5132796;28;20452;-57
2023/12/21 00:49:04;;;;;;;0.30;0.10;;;6.30;1.00;;;;;;5132678;28;20492;-56
2023/12/21 00:51:31;;;;;;;0.40;0.10;;;6.20;1.00;;;;;;5131997;27;20421;-58
2023/12/21 00:53:59;;;;;;;0.30;0.10;;;6.30;1.00;;;;;;5136381;27;20417;-58
2023/12/21 00:56:27;;;;;;;0.40;0.10;;;6.30;1.00;;;;;;5137753;27;20415;-57
2023/12/21 00:58:59;;;;;;;0.30;0.10;;;6.20;1.00;;;;;;5134262;27;20446;-58
2023/12/21 01:01:26;;;;;;;0.30;0.10;;;6.30;1.00;;;;;;5128793;27;20438;-57
2023/12/21 01:03:53;;;;;;;0.40;0.20;;;6.30;1.00;;;;;;5132788;27;20418;-58
2023/12/21 01:06:20;;;;;;;0.40;0.10;;;6.30;1.00;;;;;;5126639;27;20806;-58
2023/12/21 01:08:47;;;;;;;0.30;0.10;;;6.30;1.00;;;;;;5137286;27;20438;-58
2023/12/21 01:11:14;;;;;;;0.30;0.10;;;6.20;1.00;;;;;;5134176;27;20726;-58
2023/12/21 01:13:43;;;;;;;0.40;0.10;;;6.20;1.00;;;;;;5116587;28;20420;-56
2023/12/21 01:16:10;;;;;;;0.70;0.10;;;6.20;1.00;;;;;;5115294;27;20431;-57
2023/12/21 01:18:37;;;;;;;0.40;0.10;;;6.30;1.00;;;;;;5120173;27;20830;-58
2023/12/21 01:21:04;;;;;;;1.10;0.10;;;6.40;1.00;;;;;;5140910;27;20413;-57
2023/12/21 01:23:31;;;;;;;0.40;0.20;;;6.30;1.00;;;;;;5120673;27;20416;-58
2023/12/21 01:25:59;;;;;;;0.32;0.10;;;6.30;1.00;;;;;;5125715;27;21009;-57
2023/12/21 01:28:26;;;;;;;0.30;0.10;;;6.30;1.00;;;;;;5114918;27;20431;-55
2023/12/21 01:30:54;;;;;;;0.30;0.10;;;6.30;1.00;;;;;;5126053;27;20873;-58
2023/12/21 01:33:21;;;;;;;0.40;0.10;;;6.40;1.00;;;;;;5124096;27;20890;-58
2023/12/21 01:35:48;;;;;;;0.32;0.10;;;6.30;1.00;;;;;;5123019;27;20424;-59
2023/12/21 01:38:15;;;;;;;0.30;0.10;;;6.30;1.00;;;;;;5117551;27;20420;-58
2023/12/21 01:40:42;;;;;;;0.30;0.20;;;6.30;1.00;;;;;;5125114;27;20425;-58
2023/12/21 01:43:09;;;;;;;0.40;0.20;;;6.30;1.00;;;;;;5116690;28;20427;-58
2023/12/21 01:45:36;;;;;;;0.40;0.10;;;6.30;1.00;;;;;;5131295;27;20453;-58
2023/12/21 01:48:06;;;;;;;0.30;0.10;;;6.30;1.00;;;;;;5120926;27;20418;-58
2023/12/21 01:50:33;;;;;;;0.30;0.10;;;6.30;1.00;;;;;;5131553;27;20416;-57
2023/12/21 01:53:01;;;;;;;0.30;0.10;;;6.40;1.00;;;;;;5129449;27;20821;-57
2023/12/21 01:55:28;;;;;;;0.40;0.10;;;6.40;1.00;;;;;;5131537;27;20445;-57
2023/12/21 01:57:55;;;;;;;0.30;0.10;;;6.40;1.00;;;;;;5128606;27;20422;-58
2023/12/21 02:00:23;;;;;;;0.30;0.10;;;6.50;1.00;;;;;;5126680;27;20426;-58
2023/12/21 02:02:51;;;;;;;0.30;0.10;;;6.40;1.00;;;;;;5129708;27;20726;-57
2023/12/21 02:05:20;;;;;;;0.40;0.10;;;6.50;1.00;;;;;;5127393;27;20744;-58
2023/12/21 02:07:48;;;;;;;0.30;0.10;;;6.50;1.00;;;;;;5132467;27;20471;-59
2023/12/21 02:10:15;;;;;;;0.30;0.10;;;6.50;1.00;;;;;;5125315;27;20496;-58
2023/12/21 02:12:42;;;;;;;0.30;0.10;;;6.50;1.00;;;;;;5128898;27;20829;-58
2023/12/21 02:15:10;;;;;;;0.30;0.10;;;6.60;1.00;;;;;;5129678;27;20432;-58
2023/12/21 02:17:39;;;;;;;0.30;0.10;;;6.60;1.00;;;;;;5127649;27;20409;-58
2023/12/21 02:20:07;;;;;;;0.30;0.10;;;6.50;1.00;;;;;;5136409;27;20421;-57
2023/12/21 02:22:37;;;;;;;0.30;0.10;;;6.50;1.00;;;;;;5154945;27;20417;-58
2023/12/21 02:25:07;;;;;;;0.30;0.10;;;6.60;1.00;;;;;;5144219;27;20420;-59
2023/12/21 02:27:34;;;;;;;0.30;0.10;;;6.60;1.00;;;;;;5119920;27;20430;-59
2023/12/21 02:30:02;;;;;;;0.30;0.10;;;6.60;1.00;;;;;;5122647;27;20814;-58
2023/12/21 02:32:29;;;;;;;0.30;0.10;;;6.70;1.00;;;;;;5129550;27;20415;-58
2023/12/21 02:34:56;;;;;;;0.35;0.10;;;6.80;1.00;;;;;;5127152;27;20424;-58
2023/12/21 02:37:23;;;;;;;0.30;0.10;;;6.70;1.00;;;;;;5115456;28;20834;-58
2023/12/21 02:39:50;;;;;;;0.40;0.10;;;6.70;1.00;;;;;;5116312;27;20428;-59
2023/12/21 02:42:19;;;;;;;0.30;0.10;;;6.60;1.00;;;;;;5114497;28;20416;-58
2023/12/21 02:44:46;;;;;;;1.00;0.10;;;6.70;1.00;;;;;;5117131;27;20885;-58
2023/12/21 02:47:13;;;;;;;0.30;0.10;;;6.60;1.00;;;;;;5134561;27;20837;-59
2023/12/21 02:49:40;;;;;;;0.30;0.10;;;6.70;1.00;;;;;;5134192;27;20724;-58
2023/12/21 02:52:07;;;;;;;0.30;0.10;;;6.60;1.00;;;;;;5133355;27;20426;-59
2023/12/21 02:54:34;;;;;;;0.30;0.10;;;6.60;1.00;;;;;;5118589;27;20420;-57
2023/12/21 02:57:01;;;;;;;0.30;0.10;;;6.80;1.00;;;;;;5120095;27;20413;-59
2023/12/21 02:59:30;;;;;;;0.30;0.10;;;6.70;1.00;;;;;;5121036;27;20411;-58
2023/12/21 03:01:57;;;;;;;0.30;0.10;;;6.80;1.00;;;;;;5127710;27;20419;-59
2023/12/21 03:04:24;;;;;;;0.30;0.10;;;6.80;1.00;;;;;;5115255;27;20431;-58
2023/12/21 03:06:51;;;;;;;0.30;0.10;;;6.70;1.00;;;;;;5126140;27;20430;-59
2023/12/21 03:09:18;;;;;;;0.30;0.10;;;6.70;1.00;;;;;;5135216;27;20419;-58
2023/12/21 03:11:45;;;;;;;0.30;0.10;;;6.70;1.00;;;;;;5124537;27;20435;-58
2023/12/21 03:14:12;;;;;;;0.30;0.10;;;6.60;1.00;;;;;;5131970;27;20441;-58
2023/12/21 03:16:41;;;;;;;0.30;0.10;;;6.70;1.00;;;;;;5119034;28;20423;-59
2023/12/21 03:19:08;;;;;;;0.30;0.10;;;6.70;1.00;;;;;;5132526;27;20441;-58
2023/12/21 03:21:36;;;;;;;0.30;0.10;;;6.70;1.00;;;;;;5148464;27;20427;-59
2023/12/21 03:24:03;;;;;;;0.30;0.10;;;6.70;1.00;;;;;;5136836;27;20860;-59
2023/12/21 03:26:31;;;;;;;0.30;0.10;;;6.70;1.00;;;;;;5133821;27;20434;-58
2023/12/21 03:28:58;;;;;;;0.32;0.10;;;6.80;1.00;;;;;;5126079;27;20423;-59
2023/12/21 03:31:25;;;;;;;0.40;0.10;;;6.90;1.00;;;;;;5114705;28;20438;-59
2023/12/21 03:33:54;;;;;;;0.30;0.10;;;6.80;1.00;;;;;;5119828;27;20498;-58
2023/12/21 03:36:21;;;;;;;0.30;0.10;;;6.90;1.00;;;;;;5114673;28;20847;-58
2023/12/21 03:38:48;;;;;;;0.40;0.10;;;6.90;1.00;;;;;;5119888;28;20463;-59
2023/12/21 03:41:15;;;;;;;0.30;0.10;;;6.80;1.00;;;;;;5134100;28;20825;-58
2023/12/21 03:43:43;;;;;;;0.30;0.10;;;6.80;1.00;;;;;;5128902;28;20829;-59
2023/12/21 03:46:10;;;;;;;0.32;0.10;;;6.80;1.00;;;;;;5127219;28;21037;-59
2023/12/21 03:48:37;;;;;;;0.30;0.10;;;6.70;1.00;;;;;;5119803;28;20715;-58
2023/12/21 03:51:06;;;;;;;0.30;0.10;;;6.80;1.00;;;;;;5121264;28;20412;-59
2023/12/21 03:53:33;;;;;;;0.40;0.10;;;6.70;1.00;;;;;;5114881;28;20705;-59
2023/12/21 03:56:00;;;;;;;0.30;0.10;;;6.70;1.00;;;;;;5116969;28;20431;-59
2023/12/21 03:58:27;;;;;;;0.30;0.10;;;6.70;1.00;;;;;;5131389;28;20841;-60
2023/12/21 04:00:54;;;;;;;0.30;0.10;;;6.70;1.00;;;;;;5133013;28;20427;-59
2023/12/21 04:03:21;;;;;;;0.70;0.10;;;6.80;1.00;;;;;;5112582;28;20441;-58
2023/12/21 04:05:48;;;;;;;0.30;0.10;;;6.80;1.00;;;;;;5129843;28;20426;-59
2023/12/21 04:08:21;;;;;;;0.30;0.10;;;6.80;1.00;;;;;;5112873;28;20443;-57
2023/12/21 04:10:48;;;;;;;0.30;0.10;;;6.80;1.00;;;;;;5126846;28;20786;-56
2023/12/21 04:13:15;;;;;;;0.30;0.10;;;6.80;1.00;;;;;;5130026;28;20418;-59
2023/12/21 04:15:43;;;;;;;0.30;0.10;;;6.90;1.00;;;;;;5115580;28;20861;-59
2023/12/21 04:18:10;;;;;;;0.30;0.10;;;6.90;1.00;;;;;;5133692;28;20437;-59
2023/12/21 04:20:37;;;;;;;0.30;0.10;;;6.90;1.00;;;;;;5135839;27;20501;-58
2023/12/21 04:23:04;;;;;;;0.30;0.10;;;6.90;1.00;;;;;;5154757;27;20413;-58
2023/12/21 04:25:33;;;;;;;0.30;0.10;;;6.80;1.00;;;;;;5135989;27;20724;-59
2023/12/21 04:28:00;;;;;;;0.30;0.10;;;6.80;7.20;;;;;;5135963;27;20434;-59
2023/12/21 04:30:27;;;;;;;0.30;0.10;;;6.80;22.10;;;;;;5128549;27;20426;-59
2023/12/21 04:32:54;;;;;;;0.30;0.10;;;6.70;29.80;;;;;;5138229;27;20417;-59
2023/12/21 04:35:21;;;;;;;0.30;0.10;;;6.80;30.90;;;;;;5120676;27;20431;-59
2023/12/21 04:37:48;;;;;;;0.30;0.10;;;6.70;42.50;;;;;;5138343;27;20478;-57
2023/12/21 04:40:15;;;;;;;0.50;0.10;;;6.70;49.90;;;;;;5135682;27;20438;-56
2023/12/21 04:42:51;;;;;;;0.30;0.10;;;6.70;55.40;;;;;;5135201;27;20424;-58
2023/12/21 04:45:19;;;;;;;0.30;0.10;;;6.70;55.50;;;;;;5118848;27;20554;-58
2023/12/21 04:47:46;;;;;;;0.30;0.10;;;6.70;60.90;;;;;;5136315;27;20452;-57
2023/12/21 04:50:13;;;;;;;0.30;0.10;;;6.80;76.10;;;;;;5138235;27;20947;-57
2023/12/21 04:52:40;;;;;;;0.75;0.10;;;6.80;72.30;;;;;;5126206;27;20441;-58
2023/12/21 04:55:08;;;;;;;0.30;0.10;;;6.70;64.40;;;;;;5137592;27;20425;-58
2023/12/21 04:57:35;;;;;;;0.30;0.10;;;6.80;77.40;;;;;;5136517;27;20919;-58
2023/12/21 05:00:05;;;;;;;0.30;0.10;;;6.70;70.40;;;;;;5137921;27;20407;-58
2023/12/21 05:02:32;;;;;;;0.30;0.10;;;6.70;81.00;;;;;;5123107;27;20420;-58
2023/12/21 05:04:59;;;;;;;0.30;0.10;;;6.80;67.10;;;;;;5125080;27;20426;-58
2023/12/21 05:07:27;;;;;;;0.30;0.10;;;6.80;58.40;;;;;;5119721;27;20424;-58
2023/12/21 05:09:58;;;;;;;0.30;0.10;;;6.80;59.70;;;;;;5119942;27;20729;-58
2023/12/21 05:12:26;;;;;;;0.30;0.10;;;6.70;62.80;;;;;;5122350;27;20861;-58
2023/12/21 05:14:53;;;;;;;0.30;0.10;;;6.80;70.00;;;;;;5116816;27;20439;-57
2023/12/21 05:17:22;;;;;;;0.30;0.10;;;6.90;58.70;;;;;;5133826;27;20722;-58
2023/12/21 05:19:49;;;;;;;0.30;0.10;;;6.90;50.30;;;;;;5136949;27;20930;-59
2023/12/21 05:22:16;;;;;;;0.30;0.10;;;6.90;54.10;;;;;;5137736;27;20871;-57
2023/12/21 05:24:43;;;;;;;0.30;0.10;;;7.00;48.30;;;;;;5131248;27;20496;-58
2023/12/21 05:27:10;;;;;;;0.30;0.10;;;6.90;44.00;;;;;;5116718;28;20885;-58
2023/12/21 05:29:37;;;;;;;0.30;0.10;;;6.90;52.20;;;;;;5125003;27;20802;-58
2023/12/21 05:32:06;;;;;;;0.30;0.10;;;7.00;50.10;;;;;;5129702;27;20878;-58
2023/12/21 05:34:34;;;;;;;0.30;0.10;;;7.00;45.30;;;;;;5116298;28;20427;-57
2023/12/21 05:37:01;;;;;;;0.30;0.10;;;7.00;56.10;;;;;;5116509;28;20416;-58
2023/12/21 05:39:28;;;;;;;0.30;0.10;;;7.00;51.30;;;;;;5127486;27;20442;-58
2023/12/21 05:41:55;;;;;;;0.30;0.10;;;7.00;43.30;;;;;;5137400;27;20419;-57
2023/12/21 05:44:22;;;;;;;0.30;0.10;;;6.90;45.20;;;;;;5137064;27;20441;-58
2023/12/21 05:46:50;;;;;;;0.30;0.10;;;7.00;45.30;;;;;;5135090;27;20423;-58
2023/12/21 05:49:17;;;;;;;0.30;0.10;;;7.00;46.30;;;;;;5136178;27;20437;-58
2023/12/21 05:51:48;;;;;;;0.30;0.10;;;7.00;51.90;;;;;;5134342;27;20422;-59
2023/12/21 05:54:15;;;;;;;0.30;0.10;;;7.00;52.80;;;;;;5132293;27;20842;-58
2023/12/21 05:56:42;;;;;;;0.30;0.10;;;7.00;36.40;;;;;;5130716;27;20730;-58
2023/12/21 05:59:11;;;;;;;0.30;0.10;;;7.00;50.30;;;;;;5118342;27;20487;-58
2023/12/21 06:01:38;;;;;;;0.30;0.10;;;7.00;46.70;;;;;;5133167;27;20433;-58
2023/12/21 06:04:05;;;;;;;0.30;0.10;;;7.00;48.00;;;;;;5116782;27;21055;-58
2023/12/21 06:06:32;;;;;;;0.30;0.10;;;6.90;50.90;;;;;;5131341;27;20414;-57
2023/12/21 06:09:01;;;;;;;1.00;0.10;;;6.90;55.00;;;;;;5135561;27;20818;-54
2023/12/21 06:11:28;;;;;;;0.30;0.10;;;6.90;62.20;;;;;;5135526;27;20429;-56
2023/12/21 06:13:55;;;;;;;0.30;0.10;;;6.90;70.80;;;;;;5137698;27;20415;-58
2023/12/21 06:16:23;;;;;;;0.30;0.10;;;7.00;52.00;;;;;;5130255;27;21132;-59
2023/12/21 06:18:50;;;;;;;0.30;0.10;;;7.00;59.10;;;;;;5132945;27;20829;-59
2023/12/21 06:21:17;;;;;;;0.30;0.10;;;7.10;62.20;;;;;;5134072;27;20438;-59
2023/12/21 06:23:44;;;;;;;0.30;0.10;;;7.00;55.00;;;;;;5131581;27;20430;-59
2023/12/21 06:26:14;;;;;;;0.30;0.10;;;7.00;67.30;;;;;;5129767;27;20430;-59
2023/12/21 06:28:42;;;;;;;0.30;0.10;;;7.00;63.60;;;;;;5131093;27;20530;-60
2023/12/21 06:31:13;;;;;;;0.30;0.10;;;7.00;75.30;;;;;;5132074;27;20426;-59
2023/12/21 06:33:40;;;;;;;0.30;0.10;;;7.00;72.80;;;;;;5132656;27;20524;-59
2023/12/21 06:36:08;;;;;;;0.30;0.10;;;7.00;84.80;;;;;;5131396;27;20853;-59
2023/12/21 06:38:36;;;;;;;0.30;0.10;;;7.00;89.40;;;;;;5133618;27;20419;-59
2023/12/21 06:41:03;;;;;;;0.32;0.10;;;7.00;85.20;;;;;;5133348;27;20434;-59
2023/12/21 06:43:32;;;;;;;0.30;0.10;;;7.00;87.60;;;;;;5134986;27;20470;-59
2023/12/21 06:45:59;;;;;;;0.30;0.10;;;7.00;91.60;;;;;;5131810;27;20441;-60
2023/12/21 06:48:26;;;;;;;0.40;0.10;;;7.00;92.00;;;;;;5130356;27;20432;-59
2023/12/21 06:50:53;;;;;;;0.40;0.10;;;7.10;96.40;;;;;;5129432;27;20926;-58
2023/12/21 06:53:20;;;;;;;0.30;0.10;;;7.10;90.40;;;;;;5131626;27;20864;-59
2023/12/21 06:55:48;;;;;;;0.30;0.10;;;7.00;86.30;;;;;;5132807;27;20698;-59
2023/12/21 06:58:15;;;;;;;0.30;0.10;;;7.00;86.60;;;;;;5147098;27;20408;-60
2023/12/21 07:00:43;;;;;;;0.30;0.10;;;7.10;90.00;;;;;;5137367;27;20441;-59
2023/12/21 07:03:10;;;;;;;0.30;0.10;;;7.10;73.90;;;;;;5154964;27;20438;-60
2023/12/21 07:05:37;;;;;;;0.30;0.10;;;7.20;90.50;;;;;;5154744;27;20417;-60
2023/12/21 07:08:04;;;;;;;0.30;0.10;;;7.20;58.50;;;;;;5151768;27;20720;-60
2023/12/21 07:10:31;;;;;;;0.30;0.10;;;7.20;62.90;;;;;;5151897;27;20672;-60
2023/12/21 07:12:59;;;;;;;0.30;0.10;;;7.30;66.60;;;;;;5149587;27;20423;-59
2023/12/21 07:15:26;;;;;;;0.30;0.10;;;7.30;60.40;;;;;;5132443;27;20414;-57
2023/12/21 07:17:54;;;;;;;0.30;0.10;;;7.30;50.80;;;;;;5132440;27;20407;-58
2023/12/21 07:20:25;;;;;;;0.40;0.10;;;7.30;54.20;;;;;;5132736;27;20406;-57
2023/12/21 07:22:52;;;;;;;0.40;0.10;;;7.30;45.50;;;;;;5133260;27;20426;-58
2023/12/21 07:25:19;;;;;;;0.30;0.10;;;7.40;48.00;;;;;;5133691;27;20422;-58
2023/12/21 07:27:47;;;;;;;0.30;0.10;;;7.30;41.90;;;;;;5133202;27;20427;-57
2023/12/21 07:30:14;;;;;;;0.30;0.10;;;7.40;53.70;;;;;;5131560;27;20403;-58
2023/12/21 07:32:41;;;;;;;0.40;0.10;;;7.40;50.70;;;;;;5131799;27;20454;-57
2023/12/21 07:35:10;;;;;;;0.30;0.10;;;7.40;55.10;;;;;;5131801;27;20426;-58
2023/12/21 07:37:37;;;;;;;0.30;0.10;;;7.40;68.00;;;;;;5132045;27;20415;-58
2023/12/21 07:40:05;;;;;;;0.30;0.10;;;7.40;58.60;;;;;;5130091;27;20484;-58
2023/12/21 07:42:32;;;;;;;0.30;0.10;;;7.40;69.30;;;;;;5128709;28;20773;-57
2023/12/21 07:44:59;;;;;;;0.40;0.10;;;7.40;80.40;;;;;;5130628;28;20713;-55
2023/12/21 07:47:27;;;;;;;0.53;0.13;;;7.40;85.10;;;;;;5131407;28;20922;-58
2023/12/21 07:49:55;;;;;;;0.30;0.10;;;7.40;91.00;;;;;;5131443;28;20433;-57
2023/12/21 07:52:23;;;;;;;0.53;0.20;;;7.50;99.00;;;;;;5130846;28;20422;-57
2023/12/21 07:54:50;;;;;;;0.30;0.10;;;7.50;88.60;;;;;;5130682;28;20437;-59
2023/12/21 07:57:18;;;;;;;0.40;0.10;;;7.40;96.30;;;;;;5130966;28;20442;-59
2023/12/21 07:59:46;;;;;;;0.47;0.20;;;7.40;99.90;;;;;;5130990;28;20402;-60
2023/12/21 08:02:13;;;;;;;0.80;0.10;;;7.40;96.80;;;;;;5131875;27;21042;-60
2023/12/21 08:04:41;;;;;;;0.30;0.10;;;7.50;96.30;;;;;;5135009;27;20410;-59
2023/12/21 08:07:08;;;;;;;1.20;0.10;;;7.50;91.20;;;;;;5135953;27;20850;-59
2023/12/21 08:09:37;;;;;;;0.90;0.10;;;7.50;92.90;;;;;;5139204;27;20432;-59
2023/12/21 08:12:04;;;;;;;0.30;0.10;;;7.60;94.80;;;;;;5135552;27;20418;-58
2023/12/21 08:14:35;;;;;;;0.30;0.10;;;7.60;90.60;;;;;;5135726;27;20413;-59
2023/12/21 08:17:06;;;;;;;0.90;0.10;;;7.60;87.30;;;;;;5135316;27;20418;-59
2023/12/21 08:19:34;;;;;;;0.30;0.10;;;7.60;91.90;;;;;;5128068;27;20463;-60
2023/12/21 08:22:01;;;;;;;0.30;0.10;;;7.60;91.60;;;;;;5135340;27;20483;-60
2023/12/21 08:24:28;;;;;;;0.30;0.10;;;7.70;96.80;;;;;;5135019;27;20418;-60
2023/12/21 08:26:57;;;;;;;1.00;0.10;;;7.80;84.60;;;;;;5136045;27;20410;-60
2023/12/21 08:29:24;;;;;;;0.30;0.10;;;7.80;83.00;;;;;;5137253;27;20747;-59
2023/12/21 08:31:51;;;;;;;0.30;0.10;;;7.70;72.20;;;;;;5137706;27;20857;-59
2023/12/21 08:34:18;;;;;;;0.30;0.10;;;7.70;88.50;;;;;;5137807;27;20833;-59
2023/12/21 08:36:45;;;;;;;0.30;0.10;;;7.70;97.50;;;;;;5137186;27;20425;-60
2023/12/21 08:39:12;;;;;;;0.30;0.10;;;7.70;93.70;;;;;;5136963;27;20411;-59
2023/12/21 08:41:39;;;;;;;0.30;0.10;;;7.80;87.00;;;;;;5135398;27;20422;-60
2023/12/21 08:44:08;;;;;;;0.30;0.10;;;7.80;72.20;;;;;;5134515;27;21003;-60
2023/12/21 08:46:35;;;;;;;0.30;0.10;;;7.70;77.70;;;;;;5131192;27;20437;-60
2023/12/21 08:49:02;;;;;;;0.30;0.10;;;7.90;93.50;;;;;;5123830;27;20433;-60
2023/12/21 08:51:29;;;;;;;0.30;0.10;;;7.90;88.00;;;;;;5132688;27;20423;-60
2023/12/21 08:53:56;;;;;;;0.30;0.10;;;7.90;80.10;;;;;;5133251;27;20442;-60
2023/12/21 08:56:23;;;;;;;0.30;0.10;;;8.00;73.60;;;;;;5132642;27;20430;-60
2023/12/21 08:58:52;;;;;;;0.30;0.10;;;8.10;70.90;;;;;;5133316;27;20457;-60
2023/12/21 09:01:21;;;;;;;0.40;0.10;;;8.00;57.60;;;;;;5135527;27;20426;-60
2023/12/21 09:03:48;;;;;;;0.30;0.10;;;8.10;63.60;;;;;;5133860;27;20433;-60
2023/12/21 09:06:15;;;;;;;0.30;0.10;;;8.10;48.10;;;;;;5132643;27;20435;-60
2023/12/21 09:08:42;;;;;;;0.30;0.10;;;8.10;54.10;;;;;;5134667;27;20454;-60
2023/12/21 09:11:09;;;;;;;0.30;0.10;;;8.20;50.20;;;;;;5133101;27;20434;-61
2023/12/21 09:13:36;;;;;;;0.40;0.10;;;8.10;55.50;;;;;;5131246;27;20430;-60
2023/12/21 09:16:03;;;;;;;1.40;0.10;;;8.10;47.70;;;;;;5133409;27;20463;-60
2023/12/21 09:18:31;;;;;;;0.30;0.10;;;8.20;57.60;;;;;;5131432;27;20420;-61
2023/12/21 09:20:59;;;;;;;0.30;0.10;;;8.20;46.40;;;;;;5131384;27;21113;-60
2023/12/21 09:23:26;;;;;;;0.30;0.10;;;8.20;30.30;;;;;;5133034;27;20430;-60
2023/12/21 09:25:53;;;;;;;0.38;0.10;;;8.30;36.10;;;;;;5132887;27;20434;-60
2023/12/21 09:28:20;;;;;;;0.30;0.10;;;8.30;30.90;;;;;;5135625;27;20849;-60
2023/12/21 09:30:47;;;;;;;1.50;0.10;;;8.30;26.30;;;;;;5131737;27;20865;-61
2023/12/21 09:33:14;;;;;;;0.30;0.10;;;8.30;28.10;;;;;;5132798;27;20415;-60
2023/12/21 09:35:42;;;;;;;0.50;0.10;;;8.40;23.60;;;;;;5131696;27;20422;-60
2023/12/21 09:38:09;;;;;;;0.30;0.10;;;8.40;16.40;;;;;;5132027;27;20429;-60
2023/12/21 09:40:38;;;;;;;0.50;0.10;;;8.50;15.30;;;;;;5132349;27;20450;-60
2023/12/21 09:43:07;;;;;;;0.30;0.10;;;8.60;8.30;;;;;;5134085;27;20877;-60
2023/12/21 09:45:36;;;;;;;0.30;0.10;;;8.50;4.60;;;;;;5133936;27;20477;-61
2023/12/21 09:48:05;;;;;;;0.40;0.10;;;8.50;9.40;;;;;;5133276;27;20531;-61
2023/12/21 09:50:32;;;;;;;0.47;0.10;;;8.50;8.40;;;;;;5134114;27;20414;-60
2023/12/21 09:53:02;;;;;;;0.40;0.10;;;8.60;12.00;;;;;;5134759;27;21075;-60
2023/12/21 09:55:31;;;;;;;0.30;0.10;;;8.70;6.60;;;;;;5152195;27;20757;-60
2023/12/21 09:57:58;;;;;;;0.40;0.10;;;8.70;1.00;;;;;;5132807;27;20486;-60
2023/12/21 10:00:25;;;;;;;0.30;0.10;;;8.70;1.00;;;;;;5135762;27;20426;-59
2023/12/21 10:02:53;;;;;;;0.40;0.20;;;8.70;1.00;;;;;;5135065;27;20418;-59
2023/12/21 10:05:20;;;;;;;0.85;0.10;;;8.70;1.00;;;;;;5133666;27;20725;-59
2023/12/21 10:07:47;;;;;;;0.30;0.10;;;8.70;1.00;;;;;;5135251;27;20718;-59
2023/12/21 10:10:17;;;;;;;0.30;0.10;;;8.70;1.00;;;;;;5134930;27;20979;-59
2023/12/21 10:12:44;;;;;;;0.40;0.10;;;8.70;3.00;;;;;;5134869;27;20725;-59
2023/12/21 10:15:12;;;;;;;0.70;0.10;;;8.70;1.00;;;;;;5133677;27;20425;-59
2023/12/21 10:17:39;;;;;;;1.00;0.20;;;8.80;1.00;;;;;;5132848;27;20418;-60
2023/12/21 10:20:11;;;;;;;0.80;0.10;;;8.80;2.20;;;;;;5131735;27;20445;-59
2023/12/21 10:22:39;;;;;;;0.35;0.10;;;8.80;1.80;;;;;;5122414;27;20513;-59
2023/12/21 10:25:08;;;;;;;0.40;0.17;;;8.80;2.40;;;;;;5130744;27;20974;-60
2023/12/21 10:27:38;;;;;;;0.30;0.10;;;8.70;4.00;;;;;;5124501;27;20449;-60
2023/12/21 10:30:06;;;;;;;0.50;0.20;;;8.80;2.90;;;;;;5133217;27;20438;-60
2023/12/21 10:32:33;;;;;;;0.50;0.10;;;8.80;12.70;;;;;;5134647;27;20418;-60
2023/12/21 10:35:00;;;;;;;0.30;0.10;;;8.70;20.50;;;;;;5133293;27;20419;-60
2023/12/21 10:37:27;;;;;;;0.40;0.10;;;8.70;34.20;;;;;;5133754;27;20422;-59
2023/12/21 10:39:56;;;;;;;0.30;0.10;;;8.80;30.80;;;;;;5132612;27;20857;-58
2023/12/21 10:42:24;;;;;;;0.30;0.10;;;8.80;24.60;;;;;;5132437;27;20426;-59
2023/12/21 10:44:52;;;;;;;0.30;0.10;;;8.90;16.40;;;;;;5132117;27;20421;-59
2023/12/21 10:47:21;;;;;;;0.30;0.10;;;9.00;11.00;;;;;;5133514;27;20434;-60
2023/12/21 10:49:51;;;;;;;0.40;0.10;;;8.90;12.60;;;;;;5117079;27;20430;-57
2023/12/21 10:52:19;;;;;;;0.40;0.20;;;8.90;14.60;;;;;;5133429;27;20422;-57
2023/12/21 10:54:47;;;;;;;0.30;0.10;;;8.90;22.50;;;;;;5131910;27;20483;-58
2023/12/21 10:57:16;;;;;;;0.40;0.10;;;8.90;13.40;;;;;;5129708;27;20430;-59
2023/12/21 10:59:44;;;;;;;0.40;0.10;;;8.90;20.20;;;;;;5128889;27;20421;-59
2023/12/21 11:02:14;;;;;;;0.30;0.10;;;8.90;14.50;;;;;;5128003;27;20526;-59
2023/12/21 11:04:44;;;;;;;0.30;0.10;;;9.00;15.60;;;;;;5120323;27;20536;-59
2023/12/21 11:07:13;;;;;;;0.30;0.10;;;8.90;6.30;;;;;;5124940;27;20867;-59
2023/12/21 11:09:42;;;;;;;0.30;0.10;;;8.90;6.00;;;;;;5126229;27;20438;-59
2023/12/21 11:12:09;;;;;;;0.40;0.20;;;9.00;6.20;;;;;;5129355;27;20421;-59
2023/12/21 11:14:37;;;;;;;0.60;0.30;;;9.10;1.00;;;;;;5118902;27;20426;-59
2023/12/21 11:17:05;;;;;;;0.50;0.20;;;9.10;1.00;;;;;;5126232;27;20460;-58
2023/12/21 11:19:38;;;;;;;0.40;0.10;;;9.10;1.00;;;;;;5131956;27;20422;-59
2023/12/21 11:22:06;;;;;;;0.40;0.20;;;9.10;1.00;;;;;;5131884;27;20418;-59
2023/12/21 11:24:33;;;;;;;0.60;0.10;;;9.10;1.00;;;;;;5127470;27;20524;-58
2023/12/21 11:27:01;;;;;;;0.40;0.20;;;9.10;6.00;;;;;;5137520;27;20430;-60
2023/12/21 11:29:30;;;;;;;0.50;0.20;;;9.10;5.90;;;;;;5130981;27;20872;-58
2023/12/21 11:31:58;;;;;;;0.30;0.10;;;9.10;1.00;;;;;;5131455;27;20438;-59
2023/12/21 11:34:39;;;;;;;0.30;0.10;;;9.10;1.00;;;;;;5130605;27;20436;-60
2023/12/21 11:37:23;;;;;;;0.30;0.10;;;9.00;8.00;;;;;;5129599;27;20434;-60
2023/12/21 11:39:52;;;;;;;0.30;0.10;;;9.10;10.20;;;;;;5130324;27;20426;-58
2023/12/21 11:42:21;;;;;;;0.30;0.10;;;9.10;2.20;;;;;;5130461;28;20522;-60
2023/12/21 11:44:52;;;;;;;0.40;0.10;;;9.10;1.00;;;;;;5131687;28;20454;-59
2023/12/21 11:47:19;;;;;;;0.40;0.10;;;9.10;7.60;;;;;;5128658;28;20461;-58
2023/12/21 11:49:48;;;;;;;0.30;0.20;;;9.10;1.00;;;;;;5128367;28;20533;-59
2023/12/21 11:52:24;;;;;;;0.30;0.10;;;9.10;1.00;;;;;;5129760;28;20426;-59
2023/12/21 11:54:51;;;;;;;0.30;0.10;;;9.10;4.40;;;;;;5129717;28;20757;-60
2023/12/21 11:57:19;;;;;;;0.32;0.10;;;9.10;3.30;;;;;;5129951;28;20434;-58
2023/12/21 11:59:46;;;;;;;0.30;0.10;;;9.10;1.40;;;;;;5129505;28;20418;-59
2023/12/21 12:02:14;;;;;;;0.70;0.20;;;9.10;4.80;;;;;;5130981;28;20454;-59
2023/12/21 12:04:48;;;;;;;0.63;0.20;;;9.10;3.00;;;;;;5130817;28;20765;-59
2023/12/21 12:07:19;;;;;;;0.88;0.20;;;9.10;1.00;;;;;;5131704;28;20438;-60
2023/12/21 12:09:46;;;;;;;0.40;0.10;;;9.20;3.80;;;;;;5119788;28;20430;-59
2023/12/21 12:12:14;;;;;;;0.30;0.10;;;9.20;6.20;;;;;;5131035;28;20445;-59
2023/12/21 12:14:41;;;;;;;0.60;0.20;;;9.20;1.00;;;;;;5122125;27;20549;-59
2023/12/21 12:17:09;;;;;;;0.30;0.10;;;9.20;1.00;;;;;;5120969;28;20506;-60
2023/12/21 12:19:38;;;;;;;1.30;0.10;;;9.30;1.00;;;;;;5130553;28;20422;-59
2023/12/21 12:22:05;;;;;;;0.30;0.10;;;9.30;1.00;;;;;;5127311;27;20528;-59
2023/12/21 12:24:34;;;;;;;0.30;0.10;;;9.30;1.00;;;;;;5134028;27;20872;-58
2023/12/21 12:27:01;;;;;;;0.30;0.10;;;9.40;1.00;;;;;;5127511;28;20411;-59
2023/12/21 12:29:29;;;;;;;0.50;0.10;;;9.50;1.00;;;;;;5120351;28;20426;-59
2023/12/21 12:31:57;;;;;;;0.57;0.10;;;9.50;1.00;;;;;;5127943;28;20864;-60
2023/12/21 12:34:24;;;;;;;0.40;0.10;;;9.50;1.00;;;;;;5128117;28;20434;-60
2023/12/21 12:36:54;;;;;;;0.60;0.10;;;9.50;1.00;;;;;;5128435;28;20989;-60
2023/12/21 12:39:22;;;;;;;0.30;0.10;;;9.60;1.00;;;;;;5125041;27;20450;-57
2023/12/21 12:41:55;;;;;;;0.30;0.10;;;9.60;1.00;;;;;;5129059;28;20403;-58
2023/12/21 12:44:22;;;;;;;0.30;0.10;;;9.60;1.00;;;;;;5127189;27;20434;-57
2023/12/21 12:46:49;;;;;;;0.30;0.10;;;9.60;1.00;;;;;;5129758;27;20668;-58
2023/12/21 12:49:17;;;;;;;0.30;0.10;;;9.50;1.00;;;;;;5129736;27;20693;-58
2023/12/21 12:51:46;;;;;;;0.30;0.10;;;9.50;1.00;;;;;;5120082;27;20841;-58
2023/12/21 12:54:13;;;;;;;0.30;0.10;;;9.50;1.00;;;;;;5126309;27;20418;-59
2023/12/21 12:56:46;;;;;;;0.30;0.10;;;9.50;1.00;;;;;;5131198;27;20418;-59
2023/12/21 12:59:15;;;;;;;0.30;0.10;;;9.40;1.00;;;;;;5129804;27;20421;-59
2023/12/21 13:01:42;;;;;;;0.40;0.10;;;9.40;1.00;;;;;;5132453;27;20505;-59
2023/12/21 13:04:09;;;;;;;0.40;0.10;;;9.40;1.00;;;;;;5135031;27;20463;-59
2023/12/21 13:06:36;;;;;;;0.30;0.10;;;9.40;1.00;;;;;;5136748;27;20464;-58